Time;durP1;ratioP1;P1;durP2;ratioP2;P2;SDS_P1;SDS_P2;PMS_P1;PMS_P2;Temp;Humidity;BMP_temperature;BMP_pressure;BME280_temperature;BME280_humidity;BME280_pressure;Samples;Min_cycle;Max_cycle;Signal;HPM_P1;HPM_P2
2022/02/19 00:00:42;;;;;;;6.75;1.77;;;6.10;69.70;;;;;;5095729;28;20039;-72
2022/02/19 00:03:08;;;;;;;5.13;2.03;;;6.20;70.00;;;;;;5078620;28;20047;-72
2022/02/19 00:05:37;;;;;;;6.50;1.67;;;6.20;70.10;;;;;;5113877;28;20039;-72
2022/02/19 00:08:03;;;;;;;6.78;1.80;;;6.20;70.10;;;;;;5079228;28;20034;-72
2022/02/19 00:10:29;;;;;;;6.03;1.67;;;6.20;70.10;;;;;;5095357;28;20498;-72
2022/02/19 00:12:54;;;;;;;6.40;1.73;;;6.10;70.20;;;;;;5113399;28;20066;-73
2022/02/19 00:15:20;;;;;;;5.88;1.73;;;6.10;70.20;;;;;;5094233;28;20473;-74
2022/02/19 00:17:46;;;;;;;9.77;2.08;;;6.20;70.30;;;;;;5113582;28;20040;-72
2022/02/19 00:20:13;;;;;;;9.18;1.80;;;6.20;70.30;;;;;;5113113;28;20039;-73
2022/02/19 00:22:39;;;;;;;10.18;1.80;;;6.10;70.30;;;;;;5095130;28;20040;-73
2022/02/19 00:25:06;;;;;;;13.70;2.45;;;6.10;70.30;;;;;;5095135;28;20134;-73
2022/02/19 00:27:32;;;;;;;10.57;1.95;;;6.10;70.30;;;;;;5095085;28;20042;-73
2022/02/19 00:29:57;;;;;;;8.63;2.05;;;6.20;70.40;;;;;;5078111;28;20069;-73
2022/02/19 00:32:23;;;;;;;5.75;1.45;;;6.20;70.50;;;;;;5113192;28;20039;-73
2022/02/19 00:34:49;;;;;;;8.07;1.67;;;6.20;70.50;;;;;;5095055;28;20035;-71
2022/02/19 00:37:15;;;;;;;10.23;1.92;;;6.10;70.60;;;;;;5113555;28;20044;-72
2022/02/19 00:39:41;;;;;;;6.93;1.55;;;6.10;70.80;;;;;;5095003;28;20496;-71
2022/02/19 00:42:06;;;;;;;5.85;1.70;;;6.10;70.90;;;;;;5095483;28;20123;-71
2022/02/19 00:44:32;;;;;;;9.93;1.90;;;6.10;71.00;;;;;;5094843;28;20043;-72
2022/02/19 00:46:59;;;;;;;6.82;1.92;;;6.10;71.10;;;;;;5095436;28;20085;-72
2022/02/19 00:49:25;;;;;;;11.23;2.22;;;6.10;71.20;;;;;;5113570;28;20039;-72
2022/02/19 00:51:51;;;;;;;6.53;2.05;;;6.10;71.90;;;;;;5095431;28;20549;-72
2022/02/19 00:54:17;;;;;;;8.65;1.80;;;6.10;71.30;;;;;;5094677;28;20044;-72
2022/02/19 00:56:42;;;;;;;6.45;1.67;;;6.10;71.50;;;;;;5112967;28;20048;-73
2022/02/19 00:59:08;;;;;;;8.30;2.25;;;6.00;72.20;;;;;;5094499;28;20036;-72
2022/02/19 01:01:36;;;;;;;7.65;1.60;;;6.00;71.90;;;;;;5094642;28;20044;-72
2022/02/19 01:04:01;;;;;;;8.75;2.05;;;6.00;72.00;;;;;;5094610;28;20089;-72
2022/02/19 01:06:27;;;;;;;7.22;1.58;;;6.00;72.10;;;;;;5113181;28;20032;-72
2022/02/19 01:08:53;;;;;;;6.35;2.03;;;6.00;72.30;;;;;;5112748;28;20036;-72
2022/02/19 01:11:19;;;;;;;8.85;2.17;;;6.00;72.40;;;;;;5094746;28;20039;-72
2022/02/19 01:13:47;;;;;;;8.07;1.60;;;6.00;72.50;;;;;;5077537;28;20065;-74
2022/02/19 01:16:14;;;;;;;7.28;1.83;;;6.00;72.60;;;;;;5060891;28;20032;-73
2022/02/19 01:18:39;;;;;;;9.43;1.98;;;6.00;72.70;;;;;;5095054;28;20046;-74
2022/02/19 01:21:05;;;;;;;7.35;2.05;;;6.00;72.80;;;;;;5077695;28;20459;-72
2022/02/19 01:23:31;;;;;;;5.80;1.60;;;6.00;72.80;;;;;;5094520;28;20050;-73
2022/02/19 01:25:57;;;;;;;11.07;1.98;;;6.00;72.90;;;;;;5077756;28;20135;-73
2022/02/19 01:28:22;;;;;;;9.10;2.25;;;6.00;73.00;;;;;;5115608;28;20378;-73
2022/02/19 01:30:48;;;;;;;9.10;1.85;;;6.00;73.00;;;;;;5116186;28;20392;-73
2022/02/19 01:33:14;;;;;;;8.13;1.90;;;6.00;73.00;;;;;;5097989;28;20044;-73
2022/02/19 01:35:39;;;;;;;7.35;1.63;;;6.00;73.00;;;;;;5080896;28;20476;-74
2022/02/19 01:38:05;;;;;;;6.15;1.90;;;6.00;73.00;;;;;;5080818;28;20043;-73
2022/02/19 01:40:31;;;;;;;5.70;1.55;;;6.00;72.90;;;;;;5116038;28;20040;-73
2022/02/19 01:42:57;;;;;;;5.55;2.00;;;6.00;72.90;;;;;;5064117;28;20481;-73
2022/02/19 01:45:22;;;;;;;6.00;1.85;;;6.00;72.90;;;;;;5116071;28;20400;-73
2022/02/19 01:47:48;;;;;;;5.50;1.58;;;5.90;72.60;;;;;;5097408;28;20172;-73
2022/02/19 01:50:14;;;;;;;8.30;1.50;;;6.00;72.60;;;;;;5080755;28;20047;-73
2022/02/19 01:52:42;;;;;;;3.75;1.02;;;5.90;72.50;;;;;;5097506;28;20043;-73
2022/02/19 01:55:10;;;;;;;8.68;1.42;;;6.00;72.60;;;;;;5115582;28;20047;-72
2022/02/19 01:57:36;;;;;;;3.92;1.08;;;6.00;72.60;;;;;;5097834;28;20071;-73
2022/02/19 02:00:04;;;;;;;5.10;1.48;;;6.00;72.50;;;;;;5115564;28;20047;-73
2022/02/19 02:02:30;;;;;;;7.90;1.75;;;6.00;72.40;;;;;;5080555;28;20043;-72
2022/02/19 02:04:56;;;;;;;5.75;1.30;;;6.00;72.10;;;;;;5097408;28;20138;-72
2022/02/19 02:07:22;;;;;;;6.72;1.55;;;6.00;72.00;;;;;;5115922;28;20040;-72
2022/02/19 02:09:48;;;;;;;8.52;1.48;;;6.00;71.70;;;;;;5097709;28;20062;-72
2022/02/19 02:12:14;;;;;;;5.32;1.42;;;5.90;71.50;;;;;;5115619;28;20024;-71
2022/02/19 02:14:41;;;;;;;4.80;1.17;;;6.00;71.60;;;;;;5115980;28;20392;-71
2022/02/19 02:17:10;;;;;;;7.78;1.40;;;6.00;71.50;;;;;;5097473;28;20082;-71
2022/02/19 02:19:36;;;;;;;2.22;0.95;;;5.90;71.30;;;;;;5096938;28;20052;-71
2022/02/19 02:22:05;;;;;;;5.40;1.63;;;6.00;71.40;;;;;;5115569;28;20059;-71
2022/02/19 02:24:34;;;;;;;6.22;1.30;;;6.00;71.40;;;;;;5115236;28;20074;-71
2022/02/19 02:27:04;;;;;;;4.95;1.35;;;5.90;71.20;;;;;;5113540;28;20078;-71
2022/02/19 02:29:31;;;;;;;3.67;1.20;;;6.00;71.30;;;;;;5095779;28;20043;-71
2022/02/19 02:31:57;;;;;;;3.65;0.95;;;5.90;71.10;;;;;;5115650;28;20095;-71
2022/02/19 02:34:23;;;;;;;5.32;1.33;;;5.90;71.00;;;;;;5097542;28;20052;-71
2022/02/19 02:36:48;;;;;;;3.45;0.93;;;6.00;71.00;;;;;;5115651;28;20073;-71
2022/02/19 02:39:14;;;;;;;5.85;1.50;;;6.00;70.90;;;;;;5095753;28;20067;-71
2022/02/19 02:41:40;;;;;;;3.40;1.02;;;6.00;70.50;;;;;;5115075;28;20128;-71
2022/02/19 02:44:06;;;;;;;4.05;1.15;;;6.00;70.50;;;;;;5096727;28;20401;-71
2022/02/19 02:46:31;;;;;;;4.72;1.50;;;6.00;70.50;;;;;;5115073;28;20397;-71
2022/02/19 02:48:57;;;;;;;5.85;1.10;;;6.00;70.60;;;;;;5115326;28;20028;-71
2022/02/19 02:51:23;;;;;;;6.80;1.70;;;6.00;70.60;;;;;;5115264;28;20477;-72
2022/02/19 02:53:49;;;;;;;4.60;1.17;;;6.00;70.50;;;;;;5097243;28;20036;-70
2022/02/19 02:56:15;;;;;;;4.88;1.33;;;6.00;70.60;;;;;;5096552;28;20405;-71
2022/02/19 02:58:41;;;;;;;5.63;1.10;;;6.00;70.50;;;;;;5115203;28;20520;-71
2022/02/19 03:01:09;;;;;;;4.13;1.10;;;6.10;70.30;;;;;;5115235;28;20102;-71
2022/02/19 03:03:35;;;;;;;4.28;1.10;;;6.10;70.40;;;;;;5114799;28;20040;-70
2022/02/19 03:06:04;;;;;;;3.70;1.10;;;6.00;70.40;;;;;;5114862;28;20089;-71
2022/02/19 03:08:30;;;;;;;3.55;0.95;;;6.00;70.50;;;;;;5115084;28;20040;-71
2022/02/19 03:10:56;;;;;;;3.53;1.05;;;6.00;70.50;;;;;;5114781;28;20047;-71
2022/02/19 03:13:21;;;;;;;3.70;1.10;;;6.00;70.50;;;;;;5114522;28;20096;-71
2022/02/19 03:15:47;;;;;;;2.90;1.00;;;6.00;70.50;;;;;;5114457;28;20036;-72
2022/02/19 03:18:17;;;;;;;6.97;1.35;;;5.90;70.60;;;;;;5114415;28;20401;-71
2022/02/19 03:20:43;;;;;;;2.30;0.82;;;5.90;70.60;;;;;;5095938;28;20074;-71
2022/02/19 03:23:09;;;;;;;4.93;1.40;;;5.90;70.60;;;;;;5114133;28;20040;-71
2022/02/19 03:25:34;;;;;;;3.50;1.08;;;5.90;70.70;;;;;;5114420;28;20032;-71
2022/02/19 03:28:00;;;;;;;3.83;0.90;;;6.00;70.80;;;;;;5114335;28;20504;-71
2022/02/19 03:30:26;;;;;;;4.60;1.30;;;5.90;70.90;;;;;;5114509;28;20051;-71
2022/02/19 03:32:54;;;;;;;4.85;1.13;;;5.90;71.00;;;;;;5095804;28;20116;-71
2022/02/19 03:35:19;;;;;;;5.97;1.30;;;5.90;71.00;;;;;;5112305;28;20048;-72
2022/02/19 03:37:45;;;;;;;5.32;1.25;;;5.90;71.10;;;;;;5114540;28;20142;-72
2022/02/19 03:40:11;;;;;;;3.45;0.70;;;5.90;71.10;;;;;;5113863;28;20043;-71
2022/02/19 03:42:39;;;;;;;5.57;1.38;;;5.90;71.20;;;;;;5096436;28;20032;-72
2022/02/19 03:45:08;;;;;;;3.70;0.90;;;5.90;71.30;;;;;;5113913;28;20036;-72
2022/02/19 03:47:35;;;;;;;2.08;0.68;;;5.80;71.30;;;;;;5113886;28;20043;-72
2022/02/19 03:50:02;;;;;;;6.10;1.25;;;5.90;71.50;;;;;;5114052;28;20036;-72
2022/02/19 03:52:28;;;;;;;4.13;0.98;;;5.80;71.60;;;;;;5114043;28;20043;-71
2022/02/19 03:54:54;;;;;;;2.58;0.88;;;5.80;71.60;;;;;;5114316;28;20378;-71
2022/02/19 03:57:22;;;;;;;7.75;1.50;;;5.80;71.70;;;;;;5114244;28;20035;-72
2022/02/19 03:59:48;;;;;;;6.35;1.52;;;5.90;71.70;;;;;;5114096;28;20040;-72
2022/02/19 04:02:13;;;;;;;4.32;1.27;;;5.80;71.60;;;;;;5095446;28;20036;-74
2022/02/19 04:04:39;;;;;;;6.18;1.35;;;5.80;71.70;;;;;;5114254;28;20051;-71
2022/02/19 04:07:05;;;;;;;5.68;1.65;;;5.90;71.70;;;;;;5096134;28;20042;-73
2022/02/19 04:09:31;;;;;;;5.50;1.40;;;5.90;71.70;;;;;;5095371;28;20032;-73
2022/02/19 04:11:56;;;;;;;4.57;1.58;;;5.80;71.60;;;;;;5114066;28;20050;-72
2022/02/19 04:14:22;;;;;;;8.60;1.70;;;5.90;71.70;;;;;;5114011;28;20040;-72
2022/02/19 04:16:48;;;;;;;7.72;1.20;;;5.80;71.60;;;;;;5113484;28;20461;-72
2022/02/19 04:19:14;;;;;;;7.13;1.55;;;5.80;71.60;;;;;;5113340;28;20032;-72
2022/02/19 04:21:39;;;;;;;4.93;1.30;;;5.80;71.60;;;;;;5113453;28;20032;-72
2022/02/19 04:24:06;;;;;;;6.30;1.52;;;5.80;72.20;;;;;;5095138;28;20039;-73
2022/02/19 04:26:32;;;;;;;7.72;1.65;;;5.80;71.60;;;;;;5095687;28;20062;-72
2022/02/19 04:28:58;;;;;;;8.27;1.65;;;6.00;71.70;;;;;;5095035;28;20431;-72
2022/02/19 04:31:23;;;;;;;4.38;1.20;;;5.80;71.50;;;;;;5113342;28;20091;-72
2022/02/19 04:33:49;;;;;;;3.88;1.20;;;5.80;71.50;;;;;;5113475;28;20084;-72
2022/02/19 04:36:15;;;;;;;6.90;1.42;;;5.80;71.50;;;;;;5113503;28;20036;-72
2022/02/19 04:38:41;;;;;;;5.50;1.45;;;5.80;71.40;;;;;;5113783;28;20043;-72
2022/02/19 04:41:06;;;;;;;4.43;1.23;;;5.80;71.40;;;;;;5095520;28;20090;-72
2022/02/19 04:43:33;;;;;;;9.48;1.45;;;5.80;71.50;;;;;;5095199;28;20036;-72
2022/02/19 04:45:59;;;;;;;6.40;1.58;;;5.90;71.40;;;;;;5095173;28;20075;-71
2022/02/19 04:48:24;;;;;;;5.15;1.50;;;5.90;71.30;;;;;;5094606;28;20081;-71
2022/02/19 04:50:50;;;;;;;7.00;1.55;;;5.80;71.30;;;;;;5094763;28;20080;-71
2022/02/19 04:53:16;;;;;;;7.82;1.60;;;5.80;71.30;;;;;;5112847;28;20477;-71
2022/02/19 04:55:42;;;;;;;7.93;1.95;;;5.90;71.20;;;;;;5113145;28;20122;-71
2022/02/19 04:58:08;;;;;;;5.35;1.58;;;5.80;71.00;;;;;;5112693;28;20138;-72
2022/02/19 05:00:34;;;;;;;5.68;1.70;;;5.80;71.00;;;;;;5112752;28;20089;-70
2022/02/19 05:03:00;;;;;;;7.38;1.67;;;5.90;70.90;;;;;;5112221;28;20127;-71
2022/02/19 05:05:25;;;;;;;6.70;1.48;;;5.80;70.80;;;;;;5113146;28;20032;-72
2022/02/19 05:07:51;;;;;;;6.88;1.50;;;5.90;70.90;;;;;;5113334;28;20036;-72
2022/02/19 05:10:17;;;;;;;5.38;1.10;;;5.80;70.80;;;;;;5113373;28;20047;-71
2022/02/19 05:12:44;;;;;;;7.25;1.95;;;5.80;70.80;;;;;;5112736;28;20040;-71
2022/02/19 05:15:12;;;;;;;3.63;1.38;;;5.80;70.80;;;;;;5113015;28;20054;-72
2022/02/19 05:17:51;;;;;;;4.22;1.20;;;5.80;70.80;;;;;;5094604;28;20066;-72
2022/02/19 05:20:20;;;;;;;5.72;1.40;;;5.80;71.00;;;;;;5111411;28;20075;-71
2022/02/19 05:22:45;;;;;;;3.65;1.30;;;5.80;70.90;;;;;;5112755;28;20106;-72
2022/02/19 05:25:11;;;;;;;4.25;1.23;;;5.80;71.00;;;;;;5112611;28;20092;-72
2022/02/19 05:27:37;;;;;;;8.85;1.65;;;5.80;71.00;;;;;;5112601;28;20054;-71
2022/02/19 05:30:04;;;;;;;5.97;1.52;;;5.80;71.00;;;;;;5112625;28;20397;-72
2022/02/19 05:32:30;;;;;;;6.60;1.60;;;5.80;71.00;;;;;;5112741;28;20374;-72
2022/02/19 05:34:56;;;;;;;4.35;1.52;;;5.80;71.10;;;;;;5094397;28;20050;-72
2022/02/19 05:37:21;;;;;;;6.10;1.70;;;5.70;71.30;;;;;;5094171;28;20040;-72
2022/02/19 05:39:47;;;;;;;4.90;1.13;;;5.60;71.50;;;;;;5112422;28;20047;-72
2022/02/19 05:42:13;;;;;;;4.78;1.10;;;5.60;71.70;;;;;;5094729;28;20126;-72
2022/02/19 05:44:39;;;;;;;3.88;0.98;;;5.50;71.90;;;;;;5112606;28;20040;-71
2022/02/19 05:47:05;;;;;;;4.85;1.30;;;5.50;72.00;;;;;;5112538;28;20066;-71
2022/02/19 05:49:30;;;;;;;4.70;1.80;;;5.50;72.20;;;;;;5094849;28;20445;-73
2022/02/19 05:51:56;;;;;;;5.32;1.30;;;5.50;72.00;;;;;;5112760;28;20039;-70
2022/02/19 05:54:23;;;;;;;4.35;1.15;;;5.60;72.00;;;;;;5112250;28;20127;-70
2022/02/19 05:56:49;;;;;;;3.47;1.10;;;5.70;72.00;;;;;;5112271;28;20126;-72
2022/02/19 05:59:15;;;;;;;4.22;1.10;;;5.60;72.00;;;;;;5112342;28;20556;-72
2022/02/19 06:01:40;;;;;;;2.67;1.08;;;5.60;72.00;;;;;;5111986;28;20034;-71
2022/02/19 06:04:06;;;;;;;3.08;0.75;;;5.60;72.00;;;;;;5112197;28;20039;-71
2022/02/19 06:06:32;;;;;;;2.47;0.90;;;5.60;72.00;;;;;;5112168;28;20036;-71
2022/02/19 06:08:57;;;;;;;2.80;0.88;;;5.60;71.90;;;;;;5111946;28;20036;-72
2022/02/19 06:11:23;;;;;;;6.30;1.30;;;5.60;71.90;;;;;;5060167;28;20032;-74
2022/02/19 06:13:49;;;;;;;2.40;0.77;;;5.60;71.90;;;;;;5095512;28;20042;-72
2022/02/19 06:16:14;;;;;;;4.07;1.10;;;5.60;72.00;;;;;;5080512;28;20173;-73
2022/02/19 06:18:40;;;;;;;4.13;1.10;;;5.60;72.10;;;;;;5097374;28;20549;-73
2022/02/19 06:21:07;;;;;;;6.68;1.20;;;5.60;72.00;;;;;;5115483;28;20566;-72
2022/02/19 06:23:33;;;;;;;3.13;1.20;;;5.60;72.00;;;;;;5115575;28;20118;-72
2022/02/19 06:25:59;;;;;;;4.35;0.90;;;5.60;72.00;;;;;;5115505;28;20512;-73
2022/02/19 06:28:25;;;;;;;4.85;1.20;;;5.60;72.10;;;;;;5115806;28;20546;-73
2022/02/19 06:30:50;;;;;;;5.18;1.30;;;5.60;72.10;;;;;;5115731;28;20043;-73
2022/02/19 06:33:17;;;;;;;6.88;1.00;;;5.60;72.20;;;;;;5097138;28;20102;-74
2022/02/19 06:35:43;;;;;;;4.63;1.10;;;5.60;72.20;;;;;;5115231;28;20047;-72
2022/02/19 06:38:09;;;;;;;4.13;1.02;;;5.60;72.20;;;;;;5115412;28;20097;-71
2022/02/19 06:40:34;;;;;;;1.73;0.80;;;5.50;72.20;;;;;;5115482;28;20427;-71
2022/02/19 06:43:00;;;;;;;5.43;1.20;;;5.60;72.30;;;;;;5115289;28;20035;-72
2022/02/19 06:45:26;;;;;;;4.55;1.52;;;5.60;72.40;;;;;;5115670;28;20070;-73
2022/02/19 06:47:52;;;;;;;4.57;1.08;;;5.60;72.40;;;;;;5114941;28;20040;-72
2022/02/19 06:50:17;;;;;;;3.78;1.00;;;5.50;72.40;;;;;;5114932;28;20047;-72
2022/02/19 06:52:43;;;;;;;4.60;1.02;;;5.60;72.50;;;;;;5115481;28;20422;-72
2022/02/19 06:55:09;;;;;;;4.47;1.30;;;5.60;73.20;;;;;;5097336;28;20373;-73
2022/02/19 06:57:36;;;;;;;5.18;1.42;;;5.70;72.70;;;;;;5096686;28;20077;-73
2022/02/19 07:00:05;;;;;;;4.15;0.90;;;5.50;72.60;;;;;;5096789;28;20039;-72
2022/02/19 07:02:31;;;;;;;3.78;0.82;;;5.60;72.60;;;;;;5096606;28;20473;-73
2022/02/19 07:04:58;;;;;;;2.20;0.93;;;5.60;72.70;;;;;;5097055;28;20043;-72
2022/02/19 07:07:23;;;;;;;4.57;0.90;;;5.50;72.70;;;;;;5114850;28;20039;-72
2022/02/19 07:09:49;;;;;;;2.33;0.90;;;5.60;72.90;;;;;;5114783;28;20043;-73
2022/02/19 07:12:15;;;;;;;5.25;0.90;;;5.60;73.00;;;;;;5096460;28;20101;-72
2022/02/19 07:14:41;;;;;;;4.50;0.98;;;5.50;73.00;;;;;;5115210;28;20088;-72
2022/02/19 07:17:07;;;;;;;5.50;1.20;;;5.50;73.10;;;;;;5115093;28;20122;-73
2022/02/19 07:19:34;;;;;;;4.05;1.20;;;5.50;73.10;;;;;;5079587;28;20164;-72
2022/02/19 07:22:01;;;;;;;3.00;1.00;;;5.60;73.30;;;;;;5114630;28;20040;-72
2022/02/19 07:24:27;;;;;;;2.72;0.90;;;5.60;73.20;;;;;;5114465;28;20050;-73
2022/02/19 07:26:53;;;;;;;3.80;0.85;;;5.60;73.30;;;;;;5096172;28;20096;-73
2022/02/19 07:29:19;;;;;;;3.08;0.90;;;5.50;73.30;;;;;;5114289;28;20489;-72
2022/02/19 07:31:46;;;;;;;5.43;1.00;;;5.50;73.40;;;;;;5114384;28;20054;-72
2022/02/19 07:34:12;;;;;;;3.00;0.90;;;5.50;73.40;;;;;;5079260;28;20484;-72
2022/02/19 07:36:37;;;;;;;2.10;0.75;;;5.60;73.50;;;;;;5114301;28;20035;-73
2022/02/19 07:39:03;;;;;;;4.20;0.93;;;5.60;73.50;;;;;;5114166;28;20040;-72
2022/02/19 07:41:29;;;;;;;3.25;0.90;;;5.60;73.40;;;;;;5114666;28;20040;-73
2022/02/19 07:43:55;;;;;;;3.72;1.17;;;5.60;73.50;;;;;;5114247;28;20039;-73
2022/02/19 07:46:21;;;;;;;4.10;1.00;;;5.70;73.50;;;;;;5114196;28;20044;-72
2022/02/19 07:48:46;;;;;;;3.13;1.00;;;5.70;73.60;;;;;;5114125;28;20126;-73
2022/02/19 07:59:11;;;;;;;2.20;0.90;;;5.70;73.50;;;;;;5113754;28;20052;-73
2022/02/19 08:01:37;;;;;;;4.43;0.77;;;5.80;73.50;;;;;;5113869;28;20031;-72
2022/02/19 08:04:03;;;;;;;4.15;0.80;;;5.70;73.50;;;;;;5114299;28;20031;-73
2022/02/19 08:06:28;;;;;;;2.83;0.65;;;5.80;73.60;;;;;;5078639;28;20043;-72
2022/02/19 08:08:54;;;;;;;4.63;0.77;;;5.80;73.70;;;;;;5113986;28;20035;-72
2022/02/19 08:11:20;;;;;;;5.32;1.10;;;5.80;73.60;;;;;;5113973;28;20064;-72
2022/02/19 08:13:46;;;;;;;3.60;1.10;;;5.70;73.70;;;;;;5114302;28;20454;-72
2022/02/19 08:16:11;;;;;;;4.88;1.15;;;5.70;73.70;;;;;;5113665;28;20091;-72
2022/02/19 08:18:38;;;;;;;3.72;0.73;;;5.80;73.70;;;;;;5113880;28;20039;-72
2022/02/19 08:21:05;;;;;;;3.05;0.80;;;5.80;73.70;;;;;;5095601;28;20124;-72
2022/02/19 08:23:30;;;;;;;4.80;0.85;;;5.80;73.80;;;;;;5113642;28;20032;-72
2022/02/19 08:25:57;;;;;;;4.60;0.80;;;5.80;73.90;;;;;;5113977;28;20509;-72
2022/02/19 08:28:23;;;;;;;3.15;1.17;;;5.80;74.00;;;;;;5113203;28;20039;-72
2022/02/19 08:30:50;;;;;;;4.95;0.98;;;5.80;74.00;;;;;;5095190;28;20497;-72
2022/02/19 08:33:16;;;;;;;2.15;1.00;;;5.80;74.00;;;;;;5095331;28;20061;-72
2022/02/19 08:35:43;;;;;;;2.03;0.60;;;5.90;74.10;;;;;;5095337;28;20134;-72
2022/02/19 08:38:11;;;;;;;2.40;0.77;;;5.80;74.00;;;;;;5112494;28;20451;-71
2022/02/19 08:40:43;;;;;;;2.33;0.73;;;5.90;74.10;;;;;;5095408;28;20478;-72
2022/02/19 08:43:09;;;;;;;3.72;0.88;;;5.90;74.10;;;;;;5113581;28;20050;-71
2022/02/19 08:45:35;;;;;;;5.68;1.20;;;5.90;74.10;;;;;;5113335;28;20058;-71
2022/02/19 08:48:04;;;;;;;4.75;1.17;;;5.90;73.90;;;;;;5113107;28;20114;-72
2022/02/19 08:50:32;;;;;;;4.20;0.88;;;5.90;73.80;;;;;;5113365;28;20047;-72
2022/02/19 08:52:58;;;;;;;3.20;0.73;;;6.00;73.90;;;;;;5113174;28;20043;-71
2022/02/19 08:55:25;;;;;;;5.97;1.15;;;6.10;73.90;;;;;;5113127;28;20601;-72
2022/02/19 08:57:51;;;;;;;5.95;1.00;;;6.10;73.90;;;;;;5113337;28;20035;-72
2022/02/19 09:00:19;;;;;;;5.97;1.45;;;6.10;73.90;;;;;;5077875;28;20043;-73
2022/02/19 09:02:45;;;;;;;3.17;0.80;;;6.20;73.80;;;;;;5112936;28;20102;-72
2022/02/19 09:05:13;;;;;;;2.65;0.88;;;6.20;73.70;;;;;;5113141;28;20046;-72
2022/02/19 09:07:40;;;;;;;1.83;0.60;;;6.30;73.80;;;;;;5111734;28;20062;-72
2022/02/19 09:10:08;;;;;;;2.90;0.75;;;6.30;73.70;;;;;;5113462;28;20043;-73
2022/02/19 09:12:35;;;;;;;4.78;0.95;;;6.40;73.60;;;;;;5113181;28;20040;-73
2022/02/19 09:15:01;;;;;;;2.30;0.70;;;6.50;73.50;;;;;;5113053;28;20059;-72
2022/02/19 09:17:27;;;;;;;3.30;1.00;;;6.50;73.40;;;;;;5094600;28;20124;-72
2022/02/19 09:19:53;;;;;;;3.53;0.73;;;6.50;73.40;;;;;;5112500;28;20401;-72
2022/02/19 09:22:18;;;;;;;3.13;0.90;;;6.50;73.50;;;;;;5112757;28;20044;-71
2022/02/19 09:24:44;;;;;;;3.75;1.00;;;6.50;73.60;;;;;;5094319;28;20100;-73
2022/02/19 09:27:10;;;;;;;3.95;0.82;;;6.50;73.50;;;;;;5095030;28;20054;-72
2022/02/19 09:29:36;;;;;;;3.28;1.02;;;6.60;74.20;;;;;;5113089;28;20067;-72
2022/02/19 09:32:02;;;;;;;4.43;1.30;;;6.60;73.50;;;;;;5094517;28;20043;-72
2022/02/19 09:34:27;;;;;;;3.88;1.30;;;6.70;73.60;;;;;;5094482;28;20044;-72
2022/02/19 09:36:53;;;;;;;3.03;0.90;;;6.70;73.40;;;;;;5113154;28;20131;-72
2022/02/19 09:39:19;;;;;;;5.13;1.23;;;6.80;73.30;;;;;;5112829;28;20544;-72
2022/02/19 09:41:47;;;;;;;4.82;1.10;;;6.80;73.20;;;;;;5113034;28;20441;-72
2022/02/19 09:44:14;;;;;;;2.72;0.90;;;6.90;73.30;;;;;;5094088;28;20473;-72
2022/02/19 09:46:40;;;;;;;3.85;0.98;;;6.80;73.10;;;;;;5112305;28;20089;-72
2022/02/19 09:49:08;;;;;;;3.88;1.23;;;6.90;73.20;;;;;;5114714;28;20115;-72
2022/02/19 09:51:35;;;;;;;2.53;0.90;;;6.90;73.40;;;;;;5115919;28;20031;-74
2022/02/19 09:54:01;;;;;;;2.97;0.80;;;6.80;73.30;;;;;;5097762;28;20051;-72
2022/02/19 09:56:28;;;;;;;4.45;1.20;;;6.80;73.30;;;;;;5116246;28;20123;-72
2022/02/19 09:58:57;;;;;;;8.15;1.30;;;6.80;73.30;;;;;;5097855;28;20050;-72
2022/02/19 10:01:25;;;;;;;6.00;1.40;;;6.80;73.10;;;;;;5116126;28;20051;-72
2022/02/19 10:03:57;;;;;;;7.53;1.40;;;6.80;73.10;;;;;;5115984;28;20031;-72
2022/02/19 10:06:30;;;;;;;5.82;1.48;;;6.90;72.90;;;;;;5115815;28;20051;-72
2022/02/19 10:09:16;;;;;;;4.72;1.02;;;7.00;72.70;;;;;;5098002;28;20031;-72
2022/02/19 10:11:43;;;;;;;3.92;1.00;;;7.10;72.70;;;;;;5116102;28;20090;-72
2022/02/19 10:14:26;;;;;;;4.78;1.23;;;7.10;72.50;;;;;;5116097;28;20466;-72
2022/02/19 10:17:11;;;;;;;6.03;1.35;;;7.20;72.40;;;;;;5115630;28;20097;-73
2022/02/19 10:20:02;;;;;;;4.13;1.13;;;7.20;72.30;;;;;;5115347;28;20046;-73
2022/02/19 10:22:30;;;;;;;4.60;1.13;;;7.30;72.20;;;;;;5115666;28;20039;-74
2022/02/19 10:25:00;;;;;;;3.80;1.35;;;7.40;71.80;;;;;;5115278;28;20028;-73
2022/02/19 10:27:51;;;;;;;6.90;1.50;;;7.50;71.60;;;;;;5115633;28;20081;-74
2022/02/19 10:30:20;;;;;;;6.05;1.10;;;7.50;71.40;;;;;;5097907;28;20089;-74
2022/02/19 10:32:50;;;;;;;5.40;1.20;;;7.50;71.50;;;;;;5097013;28;20047;-73
2022/02/19 10:35:16;;;;;;;4.20;1.30;;;7.50;71.50;;;;;;5096953;28;20093;-73
2022/02/19 10:37:51;;;;;;;7.47;1.33;;;7.50;71.50;;;;;;5115704;28;20040;-73
2022/02/19 10:40:30;;;;;;;4.30;1.13;;;7.50;71.60;;;;;;5115535;28;20477;-73
2022/02/19 10:42:57;;;;;;;2.72;0.77;;;7.50;71.80;;;;;;5097241;28;20047;-72
2022/02/19 10:45:25;;;;;;;3.08;0.95;;;7.60;72.10;;;;;;5115101;28;20040;-73
2022/02/19 10:47:54;;;;;;;3.42;0.90;;;7.70;72.10;;;;;;5115316;28;20074;-72
2022/02/19 10:50:21;;;;;;;7.57;1.52;;;7.80;71.80;;;;;;5114695;28;20130;-72
2022/02/19 10:52:55;;;;;;;4.18;1.15;;;7.80;71.50;;;;;;5115386;28;20054;-73
2022/02/19 10:55:27;;;;;;;4.88;1.40;;;8.00;71.50;;;;;;5113369;28;20047;-73
2022/02/19 10:57:59;;;;;;;4.20;1.17;;;7.90;71.10;;;;;;5095547;28;20076;-72
2022/02/19 11:00:26;;;;;;;4.45;1.20;;;8.10;71.10;;;;;;5096228;28;20044;-72
2022/02/19 11:02:53;;;;;;;4.68;1.38;;;8.20;71.00;;;;;;5096893;28;20077;-73
2022/02/19 11:05:20;;;;;;;4.00;1.33;;;8.10;70.80;;;;;;5115219;28;20035;-72
2022/02/19 11:07:48;;;;;;;5.32;1.67;;;8.00;71.00;;;;;;5114793;28;20051;-72
2022/02/19 11:10:17;;;;;;;6.38;1.10;;;8.00;71.30;;;;;;5096561;28;20532;-72
2022/02/19 11:12:43;;;;;;;4.93;1.60;;;8.10;71.30;;;;;;5114701;28;20051;-72
2022/02/19 11:15:11;;;;;;;5.00;1.55;;;8.10;70.90;;;;;;5114657;28;20039;-71
2022/02/19 11:17:37;;;;;;;3.72;1.40;;;8.00;70.80;;;;;;5096598;28;20118;-73
2022/02/19 11:20:06;;;;;;;5.45;1.30;;;8.00;71.00;;;;;;5114388;28;20097;-73
2022/02/19 11:22:35;;;;;;;6.43;1.35;;;8.00;71.40;;;;;;5114426;28;20497;-73
2022/02/19 11:25:04;;;;;;;5.53;1.27;;;8.10;71.70;;;;;;5114425;28;20048;-73
2022/02/19 11:27:35;;;;;;;4.07;1.20;;;8.20;70.70;;;;;;5096721;28;20049;-72
2022/02/19 11:30:05;;;;;;;3.97;1.23;;;8.20;70.40;;;;;;5114754;28;20075;-72
2022/02/19 11:32:32;;;;;;;2.35;0.95;;;8.20;70.20;;;;;;5114994;28;20118;-72
2022/02/19 11:34:58;;;;;;;5.40;1.30;;;8.40;71.00;;;;;;5114975;28;20096;-73
2022/02/19 11:37:25;;;;;;;3.40;1.10;;;8.40;70.30;;;;;;5114593;28;20047;-72
2022/02/19 11:40:02;;;;;;;4.10;1.02;;;8.50;70.00;;;;;;5114116;28;20043;-71
2022/02/19 11:42:38;;;;;;;4.65;1.20;;;8.40;69.60;;;;;;5094897;28;20040;-71
2022/02/19 11:45:24;;;;;;;3.47;1.00;;;8.40;69.70;;;;;;5114315;28;20043;-72
2022/02/19 11:47:55;;;;;;;4.03;1.30;;;8.40;70.20;;;;;;5113626;28;20037;-72
2022/02/19 11:50:27;;;;;;;2.78;0.90;;;8.60;69.90;;;;;;5114042;28;20484;-72
2022/02/19 11:53:21;;;;;;;4.88;1.30;;;8.70;69.30;;;;;;5095816;28;20032;-72
2022/02/19 11:55:47;;;;;;;4.13;0.80;;;8.90;68.90;;;;;;5114391;28;20088;-72
2022/02/19 11:58:18;;;;;;;4.75;1.00;;;8.90;68.70;;;;;;5114519;28;20040;-72
2022/02/19 12:00:49;;;;;;;7.38;1.50;;;8.90;68.30;;;;;;5079406;28;20047;-71
2022/02/19 12:03:16;;;;;;;2.37;1.00;;;8.90;68.10;;;;;;5114440;28;20457;-71
2022/02/19 12:06:14;;;;;;;4.55;1.10;;;8.70;68.40;;;;;;5114011;28;20073;-72
2022/02/19 12:09:03;;;;;;;4.25;0.90;;;8.70;68.70;;;;;;5113681;28;20043;-72
2022/02/19 12:11:28;;;;;;;5.80;1.17;;;8.70;68.50;;;;;;5113471;28;20031;-71
2022/02/19 12:13:57;;;;;;;2.80;1.00;;;8.50;68.80;;;;;;5114186;28;20036;-71
2022/02/19 12:16:43;;;;;;;2.88;0.80;;;8.50;69.60;;;;;;5113544;28;20070;-71
2022/02/19 12:19:10;;;;;;;3.40;0.93;;;8.60;69.30;;;;;;5113797;28;20039;-71
2022/02/19 12:21:43;;;;;;;4.50;1.15;;;8.80;69.10;;;;;;5113382;28;20036;-71
2022/02/19 12:24:15;;;;;;;5.72;1.17;;;8.80;68.40;;;;;;5113375;28;20495;-72
2022/02/19 12:27:12;;;;;;;5.53;1.40;;;8.70;68.40;;;;;;5095331;28;20078;-71
2022/02/19 12:29:39;;;;;;;6.82;1.05;;;8.60;68.70;;;;;;5113325;28;20075;-72
2022/02/19 12:32:11;;;;;;;3.05;0.90;;;8.50;68.90;;;;;;5113763;28;20039;-71
2022/02/19 12:34:39;;;;;;;4.10;1.00;;;8.50;69.20;;;;;;5095142;28;20044;-71
2022/02/19 12:37:12;;;;;;;2.30;0.80;;;8.60;68.80;;;;;;5078430;28;20445;-71
2022/02/19 12:39:46;;;;;;;2.58;1.08;;;8.70;68.40;;;;;;5113305;28;20044;-72
2022/02/19 12:42:17;;;;;;;4.75;1.30;;;8.80;68.30;;;;;;5113326;28;20036;-72
2022/02/19 12:44:43;;;;;;;3.03;0.70;;;9.00;68.10;;;;;;5095050;28;20039;-72
2022/02/19 12:47:10;;;;;;;4.18;1.15;;;9.10;67.70;;;;;;5095614;28;20377;-72
2022/02/19 12:49:37;;;;;;;3.50;0.90;;;9.20;67.50;;;;;;5113308;28;20035;-71
2022/02/19 12:52:03;;;;;;;2.72;0.60;;;9.20;67.40;;;;;;5113197;28;20150;-72
2022/02/19 12:54:39;;;;;;;3.67;0.93;;;9.20;67.30;;;;;;5095011;28;20044;-72
2022/02/19 12:57:06;;;;;;;3.85;1.02;;;9.10;67.00;;;;;;5094772;28;20138;-72
2022/02/19 12:59:34;;;;;;;2.45;0.80;;;9.00;67.10;;;;;;5094921;28;20043;-72
2022/02/19 13:02:02;;;;;;;4.55;1.10;;;9.00;67.30;;;;;;5113420;28;20548;-72
2022/02/19 13:04:31;;;;;;;2.67;1.00;;;9.00;67.20;;;;;;5113016;28;20067;-72
2022/02/19 13:06:57;;;;;;;2.42;0.98;;;8.90;67.10;;;;;;5112653;28;20074;-72